Terminal Aerodrome Forecast
Issued by NWS

Home | Current Version | Previous Version | Text Only | Print | Product List | Glossary On
Versions: 1 2 3 4 5 6 7 8 9 10 11 12 13 14 15 16 17 18 19 20 21 22 23 24 25 26 27 28 29 30 31 32 33 34 35 36 37 38 39 40 41
000
FTUS43 KGRB 210500
TAFRHI
TAF
KRHI 210533Z 2106/2206 26010G17KT P6SM -SN BKN020 OVC040
      TEMPO 2108/2112 3SM -SN BR
     FM211200 28010G18KT 4SM -SN BKN020 OVC040
      TEMPO 2116/2120 1 1/2SM -SN OVC015
     FM220200 29008KT 6SM -SN BKN025 OVC050=

USA.gov is the U.S. government's official web portal to all federal, state and local government web resources and services.